Hampton Falls, NH (03844)

11:15 AM EST on March 02, 2015 (GMT -0500)
Coburn Woods | Change Station
CLOSE
Current Station
Personal Weather Station
Location: Hampton Falls, NH
Elevation: 115 ft
Nearby Weather Stations

Elev 115 ft 42.92 °N, 70.88 °W | Updated 9 minutes ago

Mostly Cloudy
Mostly Cloudy
33.7 °F
Feels Like 34 °F
N
3.0
Wind Variable Wind from NW

Today
High -- | Low -- °F
--% Chance of Precip.
Yesterday
High -- | Low -- °F
Precip. -- in
6:18 AM 5:33 PM
Waxing Gibbous, 92% visible
Pressure 29.93 in
Visibility 10.0 miles
Clouds Mostly Cloudy 3000 ft
Mostly Cloudy 12000 ft
Windchill 34 °F
Dew Point 22 °F
Humidity 62%
Rainfall 0.02 in
Snow Depth Not available.
UV 3 out of 12
Pollen .30 out of 12
Air Quality Not available.
Flu Activity Not available.
METAR KPSM 021558Z 29014G22KT 10SM BKN030 BKN120 00/M07 A2991 RMK AO2A SLP133 T00001072

More Conditions Fewer Conditions

Pressure 29.93 in
Visibility 10.0 miles
Clouds Mostly Cloudy 3000 ft
Mostly Cloudy 12000 ft
Windchill 34 °F
Dew Point 22 °F
Humidity 62%
Rainfall 0.02 in
Snow Depth Not available.
UV 3 out of 12
Pollen .30 out of 12
Air Quality Not available.
Flu Activity Not available.
METAR KPSM 021558Z 29014G22KT 10SM BKN030 BKN120 00/M07 A2991 RMK AO2A SLP133 T00001072

More Conditions Fewer Conditions

10-Day Weather Forecast

Almanac

Astronomy

Mar. 02, 2015 Rise Set
Actual Time
Civil Twilight
Nautical Twilight
Astronomical Twilight
Moon
Length of Visible Light
Length of Day
Tomorrow will be .
, % of the Moon is Illuminated

Today's Extremes

State Highs State Lows

Community

WunderPhotos

Upload Photos

1,801,835 photos uploaded!

WunderBlogs® & News

Nearby

Air Quality

  Air Quality AQ Index Pollutant
Not available.

Snow Depth

Station Depth Elevation

Earthquake Activity

City Distance Mag. Time & Date
Minimum magnitude displayed is 2.5.

Coastal Water Temperatures

Place Temperature

Nearby Weather Stations